Castleton-on-Hudson, NY

6:09 AM EDT on August 31, 2015 (GMT -0400)
Valatie | | Change Station
CLOSE
Current Station
Personal Weather Station
Location: Valatie, NY
Elevation: 433 ft
Nearby Weather Stations

Elev 433 ft 42.47 °N, 73.66 °W | Updated 32 seconds ago

Fog
Fog
63.7 °F
Feels Like 63.7 °F
N
0.0
Wind Variable Wind from NE
Gusts 0.0 mph

Today
High -- | Low -- °F
--% Chance of Precip.
Yesterday
High -- | Low -- °F
Precip. -- in
6:18 AM 7:31 PM
Waning Gibbous, 96% visible
Pressure 30.00 in
Visibility 4.0 miles
Clouds Few 1000 ft
Few 26000 ft
Dew Point 63 °F
Humidity 97%
Rainfall 0.00 in
Snow Depth Not available.
UV 0.0 out of 12
Pollen 9.20 out of 12
Air Quality Not available.
Flu Activity Not available.
METAR KALB 310951Z 00000KT 4SM MIFG BR FEW010 FEW260 18/17 A3000 RMK AO2 SLP158 MIFG S-SW VCFG E-S T01830172 $
Pressure 30.00 in
Visibility 4.0 miles
Clouds Few 1000 ft
Few 26000 ft
Dew Point 63 °F
Humidity 97%
Rainfall 0.00 in
Snow Depth Not available.
UV 0.0 out of 12
Pollen 9.20 out of 12
Air Quality Not available.
Flu Activity Not available.
METAR KALB 310951Z 00000KT 4SM MIFG BR FEW010 FEW260 18/17 A3000 RMK AO2 SLP158 MIFG S-SW VCFG E-S T01830172 $

10-Day Weather Forecast

×

Almanac

Astronomy

Aug. 31, 2015 Rise Set
Actual Time
Civil Twilight
Nautical Twilight
Astronomical Twilight
Moon
Length of Visible Light
Length of Day
Tomorrow will be .
, % of the Moon is Illuminated

Today's Extremes

State Highs State Lows

Community

WunderPhotos

Upload Photos

1,851,229 photos uploaded!

WunderBlogs® & News

Nearby

Air Quality

  Air Quality AQ Index Pollutant
Not available.

Snow Depth

Station Depth Elevation

Earthquake Activity

City Distance Mag. Time & Date
Minimum magnitude displayed is 2.5.

Coastal Water Temperatures

Place Temperature

Stations

Nearby Weather Stations

Station Location Temp. Windchill Dew Point Humidity Wind Precip. Elev Updated Type